Time;durP1;ratioP1;P1;durP2;ratioP2;P2;SDS_P1;SDS_P2;PMS_P1;PMS_P2;Temp;Humidity;BMP_temperature;BMP_pressure;BME280_temperature;BME280_humidity;BME280_pressure;Samples;Min_cycle;Max_cycle;Signal;HPM_P1;HPM_P2
2023/03/14 00:00:37;;;;;;;22.60;15.13;;;205.40;2252.80;;;;;;4971403;28;20030;-53
2023/03/14 00:03:02;;;;;;;23.02;15.30;;;205.50;2252.80;;;;;;4971826;28;20054;-52
2023/03/14 00:05:28;;;;;;;28.38;17.33;;;205.40;2252.80;;;;;;4971078;28;20046;-55
2023/03/14 00:07:54;;;;;;;26.35;16.17;;;205.50;2252.80;;;;;;4971798;28;20374;-53
2023/03/14 00:10:20;;;;;;;22.52;15.10;;;205.50;2201.60;;;;;;4970897;28;20118;-53
2023/03/14 00:12:46;;;;;;;35.33;21.38;;;205.60;2176.00;;;;;;4971526;28;20040;-53
2023/03/14 00:15:13;;;;;;;33.65;23.35;;;205.70;2201.60;;;;;;4970810;28;20025;-53
2023/03/14 00:17:39;;;;;;;32.15;18.67;;;205.60;2201.60;;;;;;4971147;28;20085;-53
2023/03/14 00:20:10;;;;;;;21.95;14.00;;;205.70;2176.00;;;;;;4971481;28;20031;-57
2023/03/14 00:22:37;;;;;;;19.25;12.88;;;230.40;2124.80;;;;;;4971589;28;20475;-53
2023/03/14 00:25:04;;;;;;;22.13;14.10;;;230.40;2150.40;;;;;;4971422;28;20046;-55
2023/03/14 00:27:30;;;;;;;38.30;25.90;;;230.40;2124.80;;;;;;4971535;28;20023;-53
2023/03/14 00:29:56;;;;;;;23.65;15.88;;;230.40;2124.80;;;;;;4971156;28;20042;-53
2023/03/14 00:32:22;;;;;;;38.65;27.05;;;230.40;2150.40;;;;;;4971334;28;20023;-52
2023/03/14 00:34:47;;;;;;;45.95;29.08;;;230.40;2124.80;;;;;;4971208;28;20376;-54
2023/03/14 00:37:14;;;;;;;52.55;34.05;;;230.40;2150.40;;;;;;4971177;28;20070;-53
2023/03/14 00:39:40;;;;;;;143.98;85.60;;;230.40;2176.00;;;;;;4970575;28;20065;-53
2023/03/14 00:42:05;;;;;;;108.20;73.32;;;205.40;2252.80;;;;;;4971428;28;20046;-52
2023/03/14 00:44:31;;;;;;;57.33;36.40;;;205.10;2252.80;;;;;;4970798;28;20035;-56
2023/03/14 00:46:57;;;;;;;52.67;32.88;;;205.20;2252.80;;;;;;4971029;28;20018;-53
2023/03/14 00:49:23;;;;;;;42.40;30.15;;;205.10;2252.80;;;;;;4970518;28;20117;-54
2023/03/14 00:51:49;;;;;;;42.08;26.45;;;205.10;2252.80;;;;;;4970971;28;20101;-53
2023/03/14 00:54:15;;;;;;;60.60;38.17;;;205.20;2252.80;;;;;;4970965;28;20081;-53
2023/03/14 00:56:40;;;;;;;46.40;29.10;;;205.10;2252.80;;;;;;4971014;28;20358;-53
2023/03/14 00:59:06;;;;;;;58.80;32.13;;;205.10;2252.80;;;;;;4970716;28;20058;-53
2023/03/14 01:01:32;;;;;;;45.00;28.15;;;205.30;2252.80;;;;;;4970733;28;20022;-57
2023/03/14 01:03:57;;;;;;;31.17;22.10;;;205.20;2252.80;;;;;;4970203;28;20161;-52
2023/03/14 01:06:26;;;;;;;37.10;22.55;;;205.20;2252.80;;;;;;4970943;28;20031;-53
2023/03/14 01:08:52;;;;;;;32.30;20.52;;;205.10;2252.80;;;;;;4970451;28;20022;-56
2023/03/14 01:11:25;;;;;;;27.70;18.45;;;205.20;2252.80;;;;;;4971010;28;20019;-53
2023/03/14 01:13:51;;;;;;;19.42;13.63;;;205.20;2252.80;;;;;;4970149;28;20018;-53
2023/03/14 01:16:18;;;;;;;35.15;19.15;;;205.30;2252.80;;;;;;4970567;28;20026;-54
2023/03/14 01:18:45;;;;;;;18.23;10.40;;;205.40;2252.80;;;;;;4956623;28;20039;-52
2023/03/14 01:21:18;;;;;;;25.13;15.35;;;205.50;2201.60;;;;;;4951352;28;20027;-53
2023/03/14 01:23:45;;;;;;;32.30;22.55;;;205.60;2176.00;;;;;;4966637;28;20031;-52
2023/03/14 01:26:13;;;;;;;39.90;26.95;;;205.70;2176.00;;;;;;4970576;28;20074;-56
2023/03/14 01:28:39;;;;;;;19.80;14.88;;;205.60;2201.60;;;;;;4973131;28;20023;-52
2023/03/14 01:31:07;;;;;;;28.48;17.63;;;205.50;2201.60;;;;;;4974527;28;20035;-55
2023/03/14 01:33:33;;;;;;;29.08;18.58;;;205.50;2201.60;;;;;;4974248;28;20030;-53
2023/03/14 01:35:59;;;;;;;39.97;26.73;;;205.50;2201.60;;;;;;4974406;28;20031;-54
2023/03/14 01:38:25;;;;;;;30.38;20.05;;;205.40;2201.60;;;;;;4974163;28;20050;-52
2023/03/14 01:40:50;;;;;;;31.73;19.55;;;205.40;2227.20;;;;;;4974107;28;20031;-52
2023/03/14 01:43:19;;;;;;;39.20;26.05;;;205.30;2252.80;;;;;;4973877;28;20019;-52
2023/03/14 01:46:03;;;;;;;37.83;24.35;;;205.20;2252.80;;;;;;4974486;28;20039;-52
2023/03/14 01:48:38;;;;;;;27.50;18.08;;;205.10;2252.80;;;;;;4973609;28;20481;-51
2023/03/14 01:51:06;;;;;;;29.55;20.65;;;205.10;2252.80;;;;;;4974629;28;20073;-56
2023/03/14 01:53:33;;;;;;;34.10;24.45;;;205.20;2252.80;;;;;;4974103;28;20029;-52
2023/03/14 01:55:59;;;;;;;27.60;17.48;;;205.10;2252.80;;;;;;4973531;28;20054;-53
2023/03/14 01:58:29;;;;;;;26.70;17.13;;;205.10;2252.80;;;;;;4973998;28;20037;-52
2023/03/14 02:00:58;;;;;;;21.05;14.40;;;205.10;2252.80;;;;;;4973895;28;20074;-52
2023/03/14 02:03:26;;;;;;;21.50;12.68;;;205.20;2227.20;;;;;;4973977;28;20034;-53
2023/03/14 02:05:53;;;;;;;22.38;13.68;;;205.30;2201.60;;;;;;4973473;28;20064;-53
2023/03/14 02:08:21;;;;;;;18.83;13.57;;;205.40;2176.00;;;;;;4973479;28;20102;-51
2023/03/14 02:10:51;;;;;;;24.95;14.40;;;205.40;2176.00;;;;;;4973531;28;20072;-53
2023/03/14 02:13:19;;;;;;;22.55;12.45;;;205.20;2252.80;;;;;;4973650;28;20022;-53
2023/03/14 02:15:45;;;;;;;20.40;13.13;;;205.20;2227.20;;;;;;4973597;28;20551;-54
2023/03/14 02:18:13;;;;;;;22.10;14.05;;;205.20;2252.80;;;;;;4973774;28;20038;-52
2023/03/14 02:20:52;;;;;;;19.05;11.30;;;205.10;2252.80;;;;;;4973048;28;20015;-53
2023/03/14 02:23:40;;;;;;;18.63;11.48;;;205.10;2252.80;;;;;;4973288;28;20093;-53
2023/03/14 02:26:15;;;;;;;16.75;11.10;;;205.10;2252.80;;;;;;4973761;28;20030;-52
2023/03/14 02:28:41;;;;;;;16.88;10.93;;;205.20;2227.20;;;;;;4973017;28;20406;-52
2023/03/14 02:31:08;;;;;;;19.00;11.98;;;205.20;2252.80;;;;;;4973098;28;20035;-53
2023/03/14 02:33:37;;;;;;;19.98;12.88;;;205.40;2201.60;;;;;;4973066;28;20389;-52
2023/03/14 02:36:07;;;;;;;28.08;16.10;;;205.40;2201.60;;;;;;4973304;28;20058;-53
2023/03/14 02:38:35;;;;;;;30.05;18.92;;;205.30;2201.60;;;;;;4959248;28;20469;-53
2023/03/14 02:41:02;;;;;;;29.92;17.35;;;205.30;2201.60;;;;;;4972759;28;20027;-53
2023/03/14 02:43:27;;;;;;;26.40;14.68;;;205.30;2201.60;;;;;;4972457;28;20027;-53
2023/03/14 02:45:54;;;;;;;21.80;13.75;;;205.30;2201.60;;;;;;4973246;28;20050;-56
2023/03/14 02:48:45;;;;;;;26.83;16.83;;;205.30;2201.60;;;;;;4972242;28;20378;-54
2023/03/14 02:51:11;;;;;;;29.55;17.55;;;205.30;2201.60;;;;;;4972727;28;20185;-52
2023/03/14 02:53:38;;;;;;;17.67;11.15;;;205.30;2227.20;;;;;;4972901;28;20023;-54
2023/03/14 02:56:04;;;;;;;23.48;14.68;;;205.50;2252.80;;;;;;4975596;28;20027;-53
2023/03/14 02:58:30;;;;;;;28.17;16.85;;;205.20;2252.80;;;;;;4982817;28;20026;-52
2023/03/14 03:00:56;;;;;;;25.75;16.30;;;205.30;2227.20;;;;;;4972486;28;20113;-53
2023/03/14 03:03:22;;;;;;;35.67;20.00;;;205.20;2227.20;;;;;;4972984;28;20041;-56
2023/03/14 03:05:52;;;;;;;28.35;17.77;;;205.10;2252.80;;;;;;4972640;28;20038;-54
2023/03/14 03:08:24;;;;;;;36.42;22.92;;;205.10;2252.80;;;;;;4972513;28;20046;-54
2023/03/14 03:10:50;;;;;;;32.28;21.58;;;205.20;2252.80;;;;;;4972408;28;20022;-54
2023/03/14 03:13:16;;;;;;;22.15;14.45;;;205.10;2252.80;;;;;;4972713;28;20062;-52
2023/03/14 03:15:43;;;;;;;24.85;15.52;;;204.90;2252.80;;;;;;4972394;28;20050;-51
2023/03/14 03:18:08;;;;;;;82.65;48.63;;;204.90;2252.80;;;;;;4972772;28;20031;-55
2023/03/14 03:20:34;;;;;;;74.30;43.22;;;204.90;2252.80;;;;;;4972434;28;20459;-57
2023/03/14 03:23:00;;;;;;;48.63;31.27;;;205.00;2252.80;;;;;;4972267;28;20033;-57
2023/03/14 03:25:27;;;;;;;37.65;22.25;;;205.00;2252.80;;;;;;4972146;28;20485;-53
2023/03/14 03:27:53;;;;;;;30.98;18.50;;;205.10;2252.80;;;;;;4972629;28;20050;-53
2023/03/14 03:30:19;;;;;;;17.23;10.32;;;205.20;2252.80;;;;;;4971893;28;20382;-53
2023/03/14 03:32:45;;;;;;;12.13;8.07;;;205.30;2176.00;;;;;;4972222;28;20038;-53
2023/03/14 03:35:11;;;;;;;10.90;6.78;;;205.60;2099.20;;;;;;4971641;28;20038;-53
2023/03/14 03:37:36;;;;;;;6.35;3.92;;;230.40;2048.00;;;;;;4961318;28;20024;-54
2023/03/14 03:40:06;;;;;;;16.27;7.72;;;230.80;1996.80;;;;;;4970255;28;20458;-52
2023/03/14 03:42:33;;;;;;;16.90;7.82;;;231.00;1945.60;;;;;;4971986;28;20054;-52
2023/03/14 03:44:59;;;;;;;11.07;6.85;;;231.10;1920.00;;;;;;4971488;28;20049;-56
2023/03/14 03:47:25;;;;;;;10.13;5.70;;;231.30;1945.60;;;;;;4960282;28;20047;-53
2023/03/14 03:49:51;;;;;;;8.27;4.47;;;231.30;1894.40;;;;;;4983604;28;20536;-57
2023/03/14 03:52:17;;;;;;;9.88;5.85;;;256.10;1868.80;;;;;;4972017;28;20019;-54
2023/03/14 03:54:42;;;;;;;12.02;7.13;;;256.10;1868.80;;;;;;4984492;28;20015;-55
2023/03/14 03:57:08;;;;;;;10.32;6.70;;;256.20;1868.80;;;;;;4971919;28;20444;-54
2023/03/14 03:59:34;;;;;;;8.93;7.07;;;256.30;1843.20;;;;;;4971581;28;20038;-54
2023/03/14 04:02:00;;;;;;;12.60;6.18;;;256.30;1843.20;;;;;;4971573;28;20117;-53
2023/03/14 04:04:25;;;;;;;12.90;9.95;;;256.30;1843.20;;;;;;4971681;28;20069;-53
2023/03/14 04:06:51;;;;;;;15.35;7.50;;;256.30;1843.20;;;;;;4971701;28;20404;-53
2023/03/14 04:09:17;;;;;;;10.60;6.45;;;256.20;1868.80;;;;;;4971303;28;20049;-57
2023/03/14 04:11:42;;;;;;;11.70;7.10;;;256.20;1868.80;;;;;;4971755;28;20042;-53
2023/03/14 04:14:08;;;;;;;12.32;7.90;;;256.20;1868.80;;;;;;4971496;28;20449;-56
2023/03/14 04:16:34;;;;;;;7.53;5.07;;;256.30;1843.20;;;;;;4971893;28;20355;-52
2023/03/14 04:19:01;;;;;;;8.82;6.22;;;256.40;1817.60;;;;;;4971025;28;20078;-56
2023/03/14 04:21:27;;;;;;;11.45;6.80;;;256.40;1843.20;;;;;;4971281;28;20019;-53
2023/03/14 04:23:52;;;;;;;9.07;3.65;;;256.40;1843.20;;;;;;4971414;28;20015;-52
2023/03/14 04:26:18;;;;;;;5.38;3.03;;;256.40;1843.20;;;;;;4970917;28;20035;-55
2023/03/14 04:28:44;;;;;;;5.68;3.35;;;256.80;1766.40;;;;;;4971134;28;20019;-53
2023/03/14 04:31:19;;;;;;;9.35;5.20;;;256.70;1817.60;;;;;;4970712;28;20042;-55
2023/03/14 04:33:45;;;;;;;8.07;4.75;;;256.50;1868.80;;;;;;4970932;28;20031;-55
2023/03/14 04:36:11;;;;;;;7.28;4.57;;;256.30;1868.80;;;;;;4971231;28;20058;-53
2023/03/14 04:38:37;;;;;;;11.32;5.38;;;256.10;1894.40;;;;;;4970618;28;20078;-53
2023/03/14 04:41:03;;;;;;;8.73;4.88;;;256.00;1894.40;;;;;;4971039;28;20031;-51
2023/03/14 04:43:29;;;;;;;6.63;4.00;;;231.30;1920.00;;;;;;4970861;28;20077;-56
2023/03/14 04:45:56;;;;;;;8.98;5.57;;;231.20;1920.00;;;;;;4970915;28;20045;-53
2023/03/14 04:48:23;;;;;;;9.50;6.35;;;231.20;1971.20;;;;;;4970725;28;20023;-52
2023/03/14 04:50:49;;;;;;;10.20;6.25;;;230.80;2073.60;;;;;;4970492;28;20061;-53
2023/03/14 04:53:16;;;;;;;9.75;6.00;;;230.70;2022.40;;;;;;4971175;28;20031;-53
2023/03/14 04:55:41;;;;;;;11.27;5.82;;;230.70;2022.40;;;;;;4965535;28;20027;-53
2023/03/14 04:58:07;;;;;;;6.78;4.50;;;230.70;1996.80;;;;;;4951651;28;20036;-53
2023/03/14 05:00:33;;;;;;;10.25;6.75;;;230.70;1996.80;;;;;;4964635;28;20027;-53
2023/03/14 05:02:58;;;;;;;71.70;47.88;;;230.70;2073.60;;;;;;4952237;28;20106;-53
2023/03/14 05:05:24;;;;;;;78.03;49.15;;;205.60;2176.00;;;;;;4965607;28;20502;-53
2023/03/14 05:07:50;;;;;;;85.68;51.88;;;205.50;2201.60;;;;;;4962912;28;20027;-53
2023/03/14 05:10:16;;;;;;;87.68;53.03;;;205.50;2227.20;;;;;;4970435;28;20042;-53
2023/03/14 05:12:42;;;;;;;30.52;18.08;;;205.40;2252.80;;;;;;4970741;28;20106;-52
2023/03/14 05:15:08;;;;;;;17.23;11.35;;;205.40;2252.80;;;;;;4970559;28;20139;-56
2023/03/14 05:17:34;;;;;;;15.25;9.20;;;205.50;2201.60;;;;;;4970724;28;20466;-54
2023/03/14 05:20:00;;;;;;;18.15;10.38;;;205.70;2176.00;;;;;;4951726;28;20035;-57
2023/03/14 05:22:26;;;;;;;50.15;33.50;;;205.70;2150.40;;;;;;4951664;28;20489;-53
2023/03/14 05:24:56;;;;;;;122.88;80.00;;;230.40;2252.80;;;;;;4969864;28;20085;-53
2023/03/14 05:27:22;;;;;;;109.32;73.97;;;205.50;2252.80;;;;;;4970670;28;20035;-53
2023/03/14 05:29:48;;;;;;;93.32;61.13;;;205.60;2252.80;;;;;;4970034;28;20031;-53
2023/03/14 05:32:14;;;;;;;98.15;68.03;;;205.50;2252.80;;;;;;4970563;28;20462;-53
2023/03/14 05:34:39;;;;;;;90.13;58.92;;;205.50;2252.80;;;;;;4970282;28;20377;-53
2023/03/14 05:37:05;;;;;;;90.70;62.22;;;205.50;2252.80;;;;;;4970844;28;20026;-52
2023/03/14 05:39:31;;;;;;;72.88;53.08;;;205.70;2252.80;;;;;;4970086;28;20489;-56
2023/03/14 05:41:56;;;;;;;47.25;30.00;;;205.40;2252.80;;;;;;4970570;28;20127;-53
2023/03/14 05:44:22;;;;;;;83.00;52.15;;;205.50;2252.80;;;;;;4969896;28;20027;-53
2023/03/14 05:46:48;;;;;;;56.75;39.72;;;205.70;2252.80;;;;;;4970015;28;20393;-53
2023/03/14 05:49:13;;;;;;;72.40;46.13;;;230.50;2252.80;;;;;;4970346;28;20042;-57
2023/03/14 05:51:39;;;;;;;59.33;41.20;;;230.60;2252.80;;;;;;4969968;28;20058;-57
2023/03/14 05:54:05;;;;;;;61.20;39.10;;;230.60;2252.80;;;;;;4970768;28;20089;-53
2023/03/14 05:56:31;;;;;;;52.47;34.72;;;230.90;2252.80;;;;;;4970161;28;20385;-52
2023/03/14 05:58:57;;;;;;;50.17;33.03;;;230.90;2227.20;;;;;;4970341;28;20077;-53
2023/03/14 06:01:22;;;;;;;48.80;33.22;;;230.90;2227.20;;;;;;4969554;28;20114;-55
2023/03/14 06:03:48;;;;;;;46.17;30.27;;;230.90;2201.60;;;;;;4970414;28;20027;-58
2023/03/14 06:06:14;;;;;;;42.72;28.50;;;231.00;2176.00;;;;;;4970261;28;20121;-58
2023/03/14 06:08:39;;;;;;;41.00;26.45;;;231.00;2150.40;;;;;;4970002;28;20027;-58
2023/03/14 06:11:05;;;;;;;73.40;59.45;;;231.10;2150.40;;;;;;4970302;28;20113;-58
2023/03/14 06:13:31;;;;;;;62.97;54.33;;;230.90;2176.00;;;;;;4970961;28;20019;-59
2023/03/14 06:15:57;;;;;;;39.28;28.75;;;231.00;2150.40;;;;;;4973413;28;20085;-58
2023/03/14 06:18:22;;;;;;;39.53;30.70;;;230.90;2124.80;;;;;;4973881;28;20034;-63
2023/03/14 06:20:48;;;;;;;60.53;43.25;;;231.20;2124.80;;;;;;4960580;28;20126;-64
2023/03/14 06:23:14;;;;;;;63.65;37.65;;;231.20;2124.80;;;;;;4973694;28;20030;-63
2023/03/14 06:25:39;;;;;;;48.03;32.60;;;231.30;2150.40;;;;;;4973152;28;20039;-63
2023/03/14 06:28:05;;;;;;;52.00;35.58;;;256.00;2124.80;;;;;;4973633;28;20114;-62
2023/03/14 06:30:31;;;;;;;78.80;49.40;;;231.10;2176.00;;;;;;4972878;28;20041;-63
2023/03/14 06:32:56;;;;;;;60.30;42.15;;;231.10;2150.40;;;;;;4973354;28;20046;-66
2023/03/14 06:35:23;;;;;;;47.90;35.65;;;231.20;2150.40;;;;;;4972924;28;20026;-67
2023/03/14 06:37:49;;;;;;;51.90;33.13;;;231.30;2150.40;;;;;;4960434;28;20023;-64
2023/03/14 06:40:17;;;;;;;71.32;49.78;;;231.30;2099.20;;;;;;4971983;28;20038;-63
2023/03/14 06:42:46;;;;;;;62.08;45.85;;;256.00;2150.40;;;;;;4973410;28;20030;-63
2023/03/14 06:45:12;;;;;;;63.40;46.53;;;256.00;2150.40;;;;;;4973227;28;20030;-63
2023/03/14 06:47:38;;;;;;;65.35;47.72;;;231.30;2124.80;;;;;;4973109;28;20077;-63
2023/03/14 06:50:08;;;;;;;133.13;88.18;;;231.10;2073.60;;;;;;4972916;28;20050;-63
2023/03/14 06:52:34;;;;;;;151.63;102.18;;;231.20;2124.80;;;;;;4973280;28;20108;-67
2023/03/14 06:55:00;;;;;;;193.35;126.70;;;230.80;2227.20;;;;;;4973141;28;20432;-63
2023/03/14 06:57:25;;;;;;;154.85;105.88;;;231.00;2252.80;;;;;;4972909;28;20026;-64
2023/03/14 06:59:51;;;;;;;142.45;95.40;;;231.30;2176.00;;;;;;4972813;28;20026;-63
2023/03/14 07:02:17;;;;;;;110.65;84.47;;;256.20;2150.40;;;;;;4972729;28;20082;-63
2023/03/14 07:04:42;;;;;;;103.28;69.57;;;256.30;2124.80;;;;;;4972619;28;20477;-63
2023/03/14 07:07:08;;;;;;;92.65;61.83;;;256.50;2073.60;;;;;;4972808;28;20030;-65
2023/03/14 07:09:35;;;;;;;81.15;59.80;;;256.70;2022.40;;;;;;4973036;28;20027;-64
2023/03/14 07:12:01;;;;;;;99.38;67.28;;;256.40;2048.00;;;;;;4972332;28;20481;-65
2023/03/14 07:14:28;;;;;;;146.88;101.30;;;256.40;2099.20;;;;;;4959947;28;20026;-64
2023/03/14 07:16:53;;;;;;;176.85;118.30;;;256.10;2176.00;;;;;;4972945;28;20077;-63
2023/03/14 07:19:19;;;;;;;137.15;97.40;;;256.30;2176.00;;;;;;4972344;28;20019;-63
2023/03/14 07:21:44;;;;;;;123.95;87.63;;;256.60;2150.40;;;;;;4972682;28;20106;-64
2023/03/14 07:24:10;;;;;;;132.00;88.82;;;281.80;2124.80;;;;;;4972386;28;20078;-64
2023/03/14 07:26:36;;;;;;;143.98;99.38;;;282.30;2099.20;;;;;;4971507;28;20066;-64
2023/03/14 07:29:03;;;;;;;139.30;103.70;;;307.20;2099.20;;;;;;4972235;28;20462;-66
2023/03/14 07:31:29;;;;;;;162.55;121.35;;;307.50;2124.80;;;;;;4971981;28;20413;-64
2023/03/14 07:33:54;;;;;;;212.15;152.40;;;307.50;2099.20;;;;;;4972137;28;20107;-64
2023/03/14 07:36:20;;;;;;;208.48;145.63;;;307.60;2099.20;;;;;;4971806;28;20134;-63
2023/03/14 07:38:46;;;;;;;123.50;85.75;;;307.60;2124.80;;;;;;4972196;28;20027;-65
2023/03/14 07:41:12;;;;;;;100.38;63.30;;;307.30;2073.60;;;;;;4971859;28;20417;-63
2023/03/14 07:43:37;;;;;;;148.25;107.82;;;307.90;1920.00;;;;;;4972044;28;20378;-65
2023/03/14 07:46:03;;;;;;;159.25;112.70;;;333.00;2073.60;;;;;;4971885;28;20065;-64
2023/03/14 07:48:29;;;;;;;197.02;137.07;;;307.80;2099.20;;;;;;4971548;28;20035;-64
2023/03/14 07:50:55;;;;;;;180.98;119.47;;;307.60;2099.20;;;;;;4971859;28;20074;-64
2023/03/14 07:53:22;;;;;;;181.90;124.50;;;307.80;2124.80;;;;;;4971877;28;20149;-64
2023/03/14 07:55:47;;;;;;;180.90;123.18;;;308.00;2124.80;;;;;;4971683;28;20034;-64
2023/03/14 07:58:14;;;;;;;160.27;114.88;;;307.80;2150.40;;;;;;4971971;28;20027;-63
2023/03/14 08:00:40;;;;;;;172.77;123.53;;;307.90;2150.40;;;;;;4971398;28;20026;-64
2023/03/14 08:03:06;;;;;;;158.98;113.45;;;333.20;2124.80;;;;;;4971777;28;20033;-63
2023/03/14 08:05:35;;;;;;;166.20;115.88;;;333.50;2073.60;;;;;;4971355;28;20042;-64
2023/03/14 08:08:01;;;;;;;153.07;110.32;;;358.80;2073.60;;;;;;4971775;28;20033;-64
2023/03/14 08:10:28;;;;;;;132.63;98.10;;;384.20;1945.60;;;;;;4971564;28;20106;-64
2023/03/14 08:12:55;;;;;;;151.18;108.07;;;384.70;1868.80;;;;;;4971841;28;20033;-64
2023/03/14 08:15:22;;;;;;;144.65;102.70;;;409.60;1843.20;;;;;;4971308;28;20066;-65
2023/03/14 08:17:52;;;;;;;131.80;96.47;;;410.20;1817.60;;;;;;4971190;28;20026;-65
2023/03/14 08:20:18;;;;;;;137.90;101.35;;;435.60;1740.80;;;;;;4971045;28;20473;-65
2023/03/14 08:22:44;;;;;;;128.13;99.15;;;435.90;1689.60;;;;;;4971448;28;20030;-65
2023/03/14 08:25:10;;;;;;;139.18;105.65;;;435.40;1715.20;;;;;;4971113;28;20045;-65
2023/03/14 08:27:38;;;;;;;132.43;92.18;;;435.20;1715.20;;;;;;4971503;28;20389;-65
2023/03/14 08:30:05;;;;;;;123.38;91.60;;;435.30;1715.20;;;;;;4971107;28;20030;-65
2023/03/14 08:32:31;;;;;;;103.25;78.22;;;435.20;1689.60;;;;;;4970975;28;20035;-66
2023/03/14 08:34:59;;;;;;;124.65;95.95;;;435.40;1664.00;;;;;;4971096;28;20468;-63
2023/03/14 08:37:24;;;;;;;161.10;106.15;;;410.50;1740.80;;;;;;4971053;28;20034;-65
2023/03/14 08:39:51;;;;;;;226.50;139.90;;;410.40;1715.20;;;;;;4970361;28;20433;-65
2023/03/14 08:42:17;;;;;;;178.70;118.72;;;435.20;1740.80;;;;;;4971058;28;20050;-64
2023/03/14 08:44:43;;;;;;;118.80;88.05;;;435.30;1740.80;;;;;;4970878;28;20342;-63
2023/03/14 08:47:09;;;;;;;93.95;68.70;;;435.50;1740.80;;;;;;4970964;28;20027;-66
2023/03/14 08:49:34;;;;;;;94.20;66.65;;;435.60;1689.60;;;;;;4970581;28;20047;-65
2023/03/14 08:52:03;;;;;;;87.65;66.35;;;435.40;1638.40;;;;;;4962820;28;20506;-65
2023/03/14 08:54:29;;;;;;;102.35;64.60;;;435.30;1664.00;;;;;;4962952;28;20035;-66
2023/03/14 08:56:55;;;;;;;76.05;57.60;;;435.40;1638.40;;;;;;4970506;28;20312;-65
2023/03/14 08:59:22;;;;;;;92.05;62.85;;;435.60;1689.60;;;;;;4970539;28;20106;-66
2023/03/14 09:01:47;;;;;;;58.05;41.78;;;435.50;1664.00;;;;;;4970567;28;20054;-66
2023/03/14 09:04:13;;;;;;;65.93;48.50;;;435.30;1638.40;;;;;;4970811;28;20031;-67
2023/03/14 09:06:39;;;;;;;90.20;61.25;;;435.50;1638.40;;;;;;4970321;28;20042;-65
2023/03/14 09:09:05;;;;;;;228.98;137.90;;;435.50;1664.00;;;;;;4970958;28;20031;-65
2023/03/14 09:11:31;;;;;;;407.65;302.30;;;435.60;1689.60;;;;;;4970597;28;20501;-66
2023/03/14 09:13:56;;;;;;;156.55;113.72;;;435.60;1715.20;;;;;;4970254;28;20381;-65
2023/03/14 09:16:22;;;;;;;104.57;73.45;;;435.60;1689.60;;;;;;4951666;28;20032;-67
2023/03/14 09:18:48;;;;;;;97.88;78.90;;;435.80;1715.20;;;;;;4954587;28;20474;-67
2023/03/14 09:21:15;;;;;;;89.50;68.55;;;435.80;1638.40;;;;;;4970644;28;20062;-66
2023/03/14 09:23:41;;;;;;;88.20;59.63;;;436.10;1612.80;;;;;;4969978;28;20037;-66
2023/03/14 09:26:07;;;;;;;74.50;52.10;;;460.90;1587.20;;;;;;4970837;28;20035;-67
2023/03/14 09:28:33;;;;;;;85.85;59.03;;;461.20;1561.60;;;;;;4970536;28;20424;-65
2023/03/14 09:31:06;;;;;;;115.90;86.47;;;461.60;1587.20;;;;;;4970314;28;20042;-66
2023/03/14 09:33:31;;;;;;;76.53;58.25;;;486.50;1612.80;;;;;;4970110;28;20034;-66
2023/03/14 09:36:00;;;;;;;74.72;60.78;;;486.70;1536.00;;;;;;4970600;28;20031;-67
2023/03/14 09:38:26;;;;;;;113.05;83.78;;;487.10;1510.40;;;;;;4970346;28;20069;-64
2023/03/14 09:40:54;;;;;;;80.00;61.28;;;512.10;1484.80;;;;;;4970336;28;20031;-66
2023/03/14 09:43:22;;;;;;;11.68;8.13;;;512.30;1459.20;;;;;;4967935;28;20137;-67
2023/03/14 09:45:49;;;;;;;41.25;29.05;;;512.50;1305.60;;;;;;4968770;28;20035;-66
2023/03/14 09:48:27;;;;;;;13.55;9.43;;;512.70;1382.40;;;;;;4969189;28;20485;-66
2023/03/14 09:50:58;;;;;;;20.05;13.38;;;512.80;1254.40;;;;;;4972730;28;20390;-67
2023/03/14 09:53:43;;;;;;;23.85;18.15;;;512.90;1228.80;;;;;;4972684;28;20131;-64
2023/03/14 09:56:15;;;;;;;57.75;43.40;;;537.80;1280.00;;;;;;4971894;28;20097;-67
2023/03/14 09:58:44;;;;;;;167.25;129.00;;;537.80;1280.00;;;;;;4969762;28;20093;-68
2023/03/14 10:01:14;;;;;;;24.52;20.63;;;537.90;1254.40;;;;;;4952874;28;20027;-69
2023/03/14 10:03:42;;;;;;;26.58;24.10;;;538.00;1254.40;;;;;;4969234;28;20038;-68
2023/03/14 10:06:13;;;;;;;29.27;26.60;;;538.00;1228.80;;;;;;4968679;28;20035;-68
2023/03/14 10:08:43;;;;;;;18.85;15.52;;;538.00;1228.80;;;;;;4966538;28;20038;-68
2023/03/14 10:11:18;;;;;;;12.85;8.82;;;538.00;1254.40;;;;;;4966869;28;20031;-69
2023/03/14 10:14:05;;;;;;;15.77;11.35;;;538.00;1228.80;;;;;;4937123;29;20023;-68
2023/03/14 10:16:51;;;;;;;15.63;9.50;;;538.00;1228.80;;;;;;4954403;28;20039;-69
2023/03/14 10:19:17;;;;;;;13.23;7.68;;;538.20;1254.40;;;;;;4954228;28;20026;-70
2023/03/14 10:21:49;;;;;;;9.00;6.70;;;538.10;1228.80;;;;;;4953989;28;20058;-69
2023/03/14 10:24:21;;;;;;;13.40;7.78;;;538.10;1228.80;;;;;;4954215;28;20047;-68
2023/03/14 10:26:58;;;;;;;13.98;7.35;;;538.10;1228.80;;;;;;4954136;28;20027;-68
2023/03/14 10:29:23;;;;;;;13.05;8.57;;;538.00;1228.80;;;;;;4954154;28;20078;-68
2023/03/14 10:32:02;;;;;;;14.35;10.57;;;537.90;1254.40;;;;;;4953870;28;20027;-69
2023/03/14 10:34:31;;;;;;;44.80;28.85;;;537.80;1254.40;;;;;;4967034;28;20058;-69
2023/03/14 10:37:27;;;;;;;16.27;12.20;;;537.80;1254.40;;;;;;4973687;28;20031;-69
2023/03/14 10:39:55;;;;;;;24.83;18.75;;;537.60;1254.40;;;;;;4973359;28;20101;-67
2023/03/14 10:42:31;;;;;;;35.75;26.75;;;537.60;1254.40;;;;;;4972862;28;20077;-68
2023/03/14 10:45:00;;;;;;;26.15;23.40;;;537.80;1254.40;;;;;;4973028;28;20023;-68
2023/03/14 10:47:30;;;;;;;16.38;14.68;;;537.70;1254.40;;;;;;4973031;28;20495;-68
2023/03/14 10:49:58;;;;;;;43.33;33.10;;;537.80;1228.80;;;;;;4972974;28;20465;-64
2023/03/14 10:52:29;;;;;;;17.85;13.25;;;537.80;1254.40;;;;;;4972953;28;20536;-68
2023/03/14 10:55:01;;;;;;;39.22;29.17;;;537.90;1228.80;;;;;;4972967;28;20018;-68
2023/03/14 10:57:27;;;;;;;26.63;9.57;;;538.10;1228.80;;;;;;4973136;28;20027;-68
2023/03/14 10:59:54;;;;;;;20.45;15.65;;;538.30;1203.20;;;;;;4971814;28;20031;-67
2023/03/14 11:02:38;;;;;;;10.68;5.85;;;538.40;1203.20;;;;;;4972814;28;20026;-68
2023/03/14 11:05:41;;;;;;;8.55;6.10;;;538.50;1177.60;;;;;;4972888;28;20034;-69
2023/03/14 11:08:39;;;;;;;24.45;14.95;;;563.30;1203.20;;;;;;4972872;28;20054;-68
2023/03/14 11:11:27;;;;;;;17.88;14.18;;;538.50;1177.60;;;;;;4894374;29;20029;-69
2023/03/14 11:14:19;;;;;;;42.22;23.63;;;538.50;1177.60;;;;;;4894528;29;20383;-68
2023/03/14 11:16:59;;;;;;;33.90;20.45;;;538.50;1177.60;;;;;;4820255;29;20035;-67
2023/03/14 11:19:40;;;;;;;26.60;14.52;;;563.20;1203.20;;;;;;4820459;29;20073;-67
2023/03/14 11:22:20;;;;;;;32.50;19.27;;;563.30;1177.60;;;;;;4820338;29;20092;-68
2023/03/14 11:24:48;;;;;;;33.13;19.10;;;563.40;1203.20;;;;;;4819753;29;20026;-68
2023/03/14 11:27:32;;;;;;;7.13;5.07;;;563.60;1203.20;;;;;;4820111;29;20049;-68
2023/03/14 11:30:19;;;;;;;7.07;4.03;;;563.70;1254.40;;;;;;4819771;29;20042;-67
2023/03/14 11:33:13;;;;;;;15.68;7.80;;;563.70;1203.20;;;;;;4820101;29;20031;-67
2023/03/14 11:35:58;;;;;;;46.63;30.73;;;563.70;1177.60;;;;;;4819631;29;20042;-67
2023/03/14 11:38:47;;;;;;;55.28;33.90;;;563.70;1177.60;;;;;;4820116;29;20042;-67
2023/03/14 11:41:22;;;;;;;9.50;6.30;;;563.80;1177.60;;;;;;4819935;29;20061;-67
2023/03/14 11:43:53;;;;;;;12.57;9.15;;;563.80;1203.20;;;;;;4819674;29;20030;-67
2023/03/14 11:46:31;;;;;;;21.08;13.73;;;563.60;1177.60;;;;;;4819398;29;20038;-67
2023/03/14 11:49:01;;;;;;;12.18;7.85;;;563.70;1177.60;;;;;;4863065;29;20045;-67
2023/03/14 11:51:37;;;;;;;13.35;7.53;;;563.80;1177.60;;;;;;4874659;29;20025;-67
2023/03/14 11:54:29;;;;;;;12.90;8.70;;;563.70;1152.00;;;;;;4935035;28;20509;-67
2023/03/14 11:57:01;;;;;;;8.82;6.20;;;563.80;1177.60;;;;;;4963154;28;20055;-69
2023/03/14 11:59:42;;;;;;;15.98;10.10;;;563.90;1152.00;;;;;;4971644;28;20034;-68
2023/03/14 12:02:39;;;;;;;39.78;25.15;;;564.10;1203.20;;;;;;4972009;28;20030;-67
2023/03/14 12:05:17;;;;;;;5.78;3.53;;;588.80;1152.00;;;;;;4893676;29;20083;-67